Erdem Tokoz

Olheiro-Chefe - Basaksehir
3 Dez 2028
Domingo
Processo

Personalidade

Adaptabilidade (12) Ambição (17) Controvérsia (18) Lealdade (3) Pressão (18) Profissionalismo (13) Espírito Esportivo (15) Temperamento (16)

Perfil

Estilo de Treinamento Democrático
Licença Continental B
Determinação 9
Gestão de Pessoas 12
Motivação 8
Disciplina 10
Satisfação no Trabalho
94%
Fadiga
0%
Função Olheiro-Chefe
Salário 14.6K p/s
Contrato 14.03.2030

Desempenho

Comportamento Bom
Eficácia do Treinamento
33%
Desenvolvimento do Jogador
65%
Prevenção de Lesões
35%
Implementação Tática
50%

Eventos Recentes

Avaliou um jogador agora
Participou de uma reunião de recrutamento agora
Recomendou um alvo de transferência agora
Recomendou um alvo de transferência agora
Recomendou um alvo de transferência agora
Recomendou um alvo de transferência agora
Recomendou um alvo de transferência agora
Avaliou um jogador 7d atrás

Monitorando agora

291
Jogador Clube Status Habilidade Confiança Observado Última observação Último voto
Azizbek To'lqinbekov Bunyodkor Ativo 108 / 116 40% 3 01.12.2028 -
Harrison Armstrong Ipswich Town Ativo 137 / 141 40% 3 01.12.2028 -
Rafael Mota Sporting CP Ativo 120 / 120 40% 1 01.12.2028 -
Riquelme Thompson-Jones Accrington Stanley Ativo 114 / 121 40% 6 27.11.2028 -
Honest Ahanor Atalanta Ativo 146 / 151 40% 6 27.11.2028 -
Ayyoub Bouaddi Stoke City Ativo 160 / 156 40% 2 26.11.2028 -
Olivier Leroux Mouscron Ativo 106 / 109 40% 2 26.11.2028 -
Luka Vušković Tottenham Ativo 146 / 162 40% 1 21.11.2028 -
Guy Noël Zohouri Le Havre AC Ativo 132 / 131 40% 1 20.11.2028 -
Noah Markmann Esbjerg Ativo 122 / 122 40% 2 19.11.2028 -
Luis Otávio Orlando City Ativo 119 / 115 40% 3 19.11.2028 -
Norman Díaz Ankaragucu Ativo 112 / 112 52% 1 / 1m 15.11.2028 -
Andrey Ivlev Nizhniy Novgorod Ativo 103 / 117 40% 2 09.11.2028 -
Snyder Brunell Seattle Sounders Ativo 96 / 112 40% 1 09.11.2028 -
Davinchi Getafe Ativo 135 / 126 40% 1 07.11.2028 -
Marko Zebić Lucko Ativo 112 / 135 40% 1 07.11.2028 -
Matias Siltanen Malmo FF Ativo 114 / 123 40% 5 06.11.2028 -
Jack Shorrock Port Vale Ativo 102 / 105 40% 1 06.11.2028 -
Andrija Bulatović Chamois Niortais Ativo 129 / 138 40% 3 05.11.2028 -
Diego León Rotherham United Ativo 131 / 133 40% 4 05.11.2028 -
Christos Mouzakitis Hull City Ativo 140 / 151 40% 2 03.11.2028 -
Diego Cheuquepal Racing Ativo 103 / 96 40% 1 03.11.2028 -
Tobías Ramírez River Plate Ativo 117 / 137 40% 3 02.11.2028 -
Ronan Kpakio AC Milan Ativo 132 / 134 40% 1 02.11.2028 -
Giovanni Leoni Lincoln City Ativo 147 / 146 40% 6 01.11.2028 -
Musa Danjuma Umraniyespor Ativo 98 / 110 40% 1 01.11.2028 -
Gideon Manaseh Ikorodu City Ativo 105 / 88 40% 4 28.10.2028 -
José Neto Benfica Ativo 128 / 127 40% 1 27.10.2028 -
Tyson Pearce St. Louis CITY SC Ativo 95 / 99 40% 1 27.10.2028 -
João Simões Sporting CP Ativo 143 / 142 40% 2 25.10.2028 -
Thulani Manyama Portland Timbers Ativo 126 / 120 40% 3 25.10.2028 -
Trey Nyoni Rotherham United Ativo 150 / 156 40% 4 23.10.2028 -
Miguel Figueiredo Benfica Ativo 118 / 130 40% 1 22.10.2028 -
Peyton Miller New England Revolution Ativo 103 / 117 40% 2 21.10.2028 -
Chris Rigg West Ham United Ativo 143 / 150 40% 1 21.10.2028 -
Mateo Caballero Defensor Sporting Ativo 111 / 111 40% 1 20.10.2028 -
Germán Barbas Racing Santander Ativo 117 / 124 40% 1 18.10.2028 -
Eric Klein Real Salt Lake Ativo 111 / 103 40% 1 18.10.2028 -
Pau Cubarsí Real Sociedad Ativo 167 / 160 40% 1 17.10.2028 -
Muminhon Bahodirxonov Neftchi Ativo 94 / 101 40% 1 14.10.2028 -
Celías Ingenthron Platense Ativo 107 / 137 40% 1 13.10.2028 -
Máximo Magnoli Ferro Carril Oeste Ativo 107 / 103 40% 1 10.10.2028 -
Veljko Milosavljević Bournemouth Ativo 147 / 156 40% 1 10.10.2028 -
Harry Amass Manchester United Ativo 140 / 145 40% 3 09.10.2028 -
Nikola Simić Partizan Ativo 128 / 125 40% 2 09.10.2028 -
Sebastian Rodriguez Houston Dynamo Ativo 120 / 123 40% 2 07.10.2028 -
Joel Ezra Enyimba Ativo 106 / 93 40% 4 07.09.2028 -
Mauro Carrizo Atlético Tucumán Ativo 118 / 111 40% 1 07.09.2028 -
Matías Magdaleno Estudiantes Ativo 113 / 106 40% 1 28.08.2028 -
Tobías Ramírez River Plate Perdido 134 / 138 40% 1 28.08.2028 -
Nikola Simić Partizan Perdido 122 / 125 40% 1 21.08.2028 -
Basel Medhat Smouha Ativo 85 / 106 40% 1 15.08.2028 -
Felipe Obradovich Ferro Carril Oeste Perdido 123 / 101 40% 1 15.08.2028 -
Augusto Bando Ascoli Ativo 113 / 125 40% 1 14.08.2028 -
Agustín Medina Lanús Ativo 106 / 113 40% 1 14.08.2028 -
Ayden Heaven Portsmouth Ativo 145 / 159 40% 7 10.08.2028 -
Bernardo Lima Porto Ativo 111 / 125 40% 1 09.08.2028 -
Tyler Fletcher Rotherham United Ativo 124 / 129 40% 1 08.08.2028 -
Andrés Cuenca Como Ativo 124 / 121 40% 1 07.08.2028 -
David Mella Deportivo La Coruña Ativo 150 / 138 40% 1 06.08.2028 -
Oladapo Afolayan Blackburn Rovers Ativo 127 / 128 40% 1 06.08.2028 -
Máximo Munarriz San Telmo Ativo 86 / 96 40% 1 06.08.2028 -
Lamine Bèye Portimonense Ativo 124 / 130 40% 1 06.08.2028 -
Mirza Ćatović VfB Stuttgart Ativo 123 / 124 40% 1 05.08.2028 -
Omar El Hilali Espanyol Ativo 157 / 160 40% 4 04.08.2028 -
Matteo Ruggeri Middlesbrough Ativo 160 / 157 40% 2 04.08.2028 -
Max Bird Birmingham Ativo 136 / 148 40% 2 02.08.2028 -
Jeremy Sarmiento Middlesbrough Ativo 146 / 135 40% 1 02.08.2028 -
Marcus Tavernier Bournemouth Ativo 157 / 159 40% 3 01.08.2028 -
Tyrese Campbell Sheffield United Ativo 142 / 137 40% 2 01.08.2028 -
Bence Szakos Aris Ativo 103 / 107 40% 1 01.08.2028 -
Uğurcan Yazğılı Konyaspor Perdido 119 / 130 62% 1 31.07.2028 -
Carlos Baleba Norwich City Ativo 154 / 157 40% 1 31.07.2028 -
Reuell Walters Luton Town Ativo 130 / 126 40% 1 31.07.2028 -
Jon Morcillo Almería Ativo 148 / 142 40% 1 29.07.2028 -
Matěj Jurásek Doncaster Rovers Ativo 125 / 124 40% 1 29.07.2028 -
Jayden Addai Bari Ativo 137 / 137 40% 3 28.07.2028 -
Amankwah Forson Wycombe Wanderers Ativo 135 / 132 40% 1 28.07.2028 -
Marcelo Allende Mamelodi Sundowns Ativo 159 / 129 40% 2 25.07.2028 -
Nathan Broadhead Wrexham Ativo 140 / 125 40% 2 25.07.2028 -
Lewis O'Brien Wrexham Ativo 143 / 139 40% 2 24.07.2028 -
Nuno Santos SuperSport United Ativo 129 / 124 40% 1 24.07.2028 -
Ignasi Vilarrasa Burgos Ativo 124 / 127 40% 1 23.07.2028 -
Zeidane Inoussa Swansea City Ativo 132 / 134 40% 1 23.07.2028 -
Cengiz Ünder Fenerbahce Ativo 135 / 142 40% 1 21.07.2028 -
Ryoya Morishita Blackburn Rovers Ativo 137 / 139 40% 1 21.07.2028 -
Nestory Irankunda Watford Ativo 128 / 136 40% 1 20.07.2028 -
Calvin Ramsay Bristol Rovers Ativo 133 / 130 40% 1 20.07.2028 -
Justo Giani Umraniyespor Ativo 131 / 120 40% 1 19.07.2028 -
Harry Wilson Leeds United Ativo 149 / 147 40% 1 18.07.2028 -
Angeliño AS Roma Ativo 155 / 157 40% 1 18.07.2028 -
Samuel Ballet Antalyaspor Ativo 130 / 118 62% 1 17.07.2028 Aprovar
Juan Cruz Leganés Ativo 136 / 130 40% 1 17.07.2028 -
Dorgéles Néné Ankaragucu Ativo 144 / 132 62% 1 03.07.2028 Aprovar
André Wolverhampton Ativo 161 / 157 40% 2 12.06.2028 -
Fousseni Diabaté Kasimpasa Ativo 113 / 122 62% 1 12.06.2028 Aprovar
Dwight McNeil Crystal Palace Ativo 148 / 144 40% 1 12.06.2028 -
Milot Rashica Besiktas Ativo 131 / 132 62% 1 07.06.2028 Aprovar
Iván Martín Racing Santander Ativo 143 / 145 40% 1 29.05.2028 -
Lamare Bogarde Reading Ativo 132 / 140 40% 1 29.05.2028 -
Ben Gannon Doak Charlton Athletic Ativo 156 / 159 40% 7 27.05.2028 -
Yasin Ayari Middlesbrough Ativo 145 / 150 40% 1 27.05.2028 -
Yaser Asprilla Girona Ativo 155 / 154 40% 4 24.05.2028 -
Manuel Ugarte Leicester City Ativo 152 / 147 40% 1 23.05.2028 -
Pablo Torre Mallorca Ativo 149 / 157 40% 4 22.05.2028 -
Thijs Kraaijeveld USM Alger Ativo 125 / 122 40% 3 22.05.2028 -
Jorge Salinas Racing Santander Ativo 124 / 135 40% 1 22.05.2028 -
Fran García Betis Perdido 161 / 160 40% 2 21.05.2028 -
Salih Özcan Besiktas Ativo 146 / 128 40% 3 20.05.2028 -
Borja Sainz Udinese Perdido 159 / 159 40% 1 20.05.2028 -
Couhaib Driouech Celta Ativo 147 / 140 40% 1 20.05.2028 -
Xaver Schlager Nottingham Forest Perdido 162 / 159 40% 3 18.05.2028 -
Pau Víctor Braga Ativo 154 / 152 40% 5 16.05.2028 -
Luka Sučić Andorra Ativo 144 / 150 40% 2 16.05.2028 -
Eddie Nketiah Crystal Palace Ativo 145 / 145 40% 1 15.05.2028 -
Ismaïla Sarr Crystal Palace Ativo 150 / 145 40% 4 14.05.2028 -
Daniel Banjaqui Benfica Ativo 120 / 123 40% 2 14.05.2028 -
Amine Adli Bournemouth Perdido 158 / 140 40% 1 14.05.2028 -
Makar Vysochenko Spartak Moscow Ativo 97 / 99 40% 1 14.05.2028 -
Mohamed-Ali Cho Hull City Ativo 139 / 142 40% 4 13.05.2028 -
Cheveyo Tsawa Club Brugge Ativo 125 / 129 40% 1 13.05.2028 -
Geny Sporting CP Ativo 156 / 147 40% 4 12.05.2028 -
Gaspar Gijón Ativo 138 / 143 40% 1 12.05.2028 -
Archie Gray Southampton Ativo 158 / 151 40% 5 11.05.2028 -
Noa Lang Napoli Ativo 148 / 143 40% 2 11.05.2028 -
Andrés Martín Racing Santander Ativo 149 / 140 40% 1 10.05.2028 -
Giacomo Raspadori Atalanta Ativo 148 / 159 40% 1 09.05.2028 -
Jorthy Mokio ADO Den Haag Ativo 133 / 128 40% 3 08.05.2028 -
Sander Berge Derby County Ativo 150 / 148 40% 1 08.05.2028 -
Jofre Carreras Espanyol Ativo 147 / 139 40% 1 06.05.2028 -
Aimar Osasuna Perdido 158 / 143 40% 1 05.05.2028 -
Héctor Fort Real Sociedad Ativo 149 / 146 40% 2 03.05.2028 -
Jonathan Dubasin Osasuna Ativo 153 / 143 40% 3 02.05.2028 -
Abel Ruiz Girona Ativo 146 / 148 40% 2 30.04.2028 -
Kamaldeen Atiemo Wa All Stars Ativo 93 / 119 40% 2 30.04.2028 -
Carlos Alcaraz Stoke City Ativo 153 / 148 40% 1 29.04.2028 -
Mattéo Guendouzi Fenerbahce Ativo 156 / 146 40% 4 27.04.2028 -
Adam Wharton Crystal Palace Ativo 153 / 164 40% 1 27.04.2028 -
Óscar Mingueza Crystal Palace Ativo 162 / 147 40% 1 27.04.2028 -
Lucas Høgsberg RC Strasbourg Ativo 135 / 147 40% 2 24.04.2028 -
Jaidon Anthony Derby County Ativo 135 / 130 40% 3 22.04.2028 -
Pote Sporting CP Ativo 161 / 163 40% 4 22.04.2028 -
Kang-In Lee Villarreal Ativo 172 / 151 40% 1 18.04.2028 -
Semih Kılıçsoy Besiktas Ativo 126 / 129 40% 1 16.04.2028 -
David Larrubia Málaga Ativo 134 / 137 40% 1 16.04.2028 -
Marcus Edwards Burnley Ativo 153 / 148 40% 3 15.04.2028 -
Yann Gboho Toulouse FC Ativo 147 / 138 40% 1 14.04.2028 -
Thiago Almada LOSC Lille Ativo 148 / 143 40% 2 09.04.2028 -
Erick Pulga Bahia Ativo 133 / 146 40% 1 09.04.2028 -
Hugo Duro Valencia Ativo 154 / 153 40% 1 05.04.2028 -
Roberto Fernández Braga Ativo 151 / 144 40% 1 04.04.2028 -
Chemsdine Talbi Sunderland Ativo 146 / 152 40% 2 01.04.2028 -
Ez Abde Betis Ativo 166 / 147 40% 1 30.03.2028 -
Nordi Mukiele Sunderland Ativo 154 / 139 40% 5 28.03.2028 -
Benjamín Rollheiser Santos Ativo 133 / 124 40% 2 28.03.2028 -
Arnau Martínez Valencia Ativo 153 / 142 40% 1 28.03.2028 -
Samuel Edozie Southampton Ativo 134 / 133 40% 1 26.03.2028 -
Shavy Babicka Crvena Zvezda Ativo 119 / 114 40% 1 21.03.2028 -
Musa Barrow ES Setif Ativo 129 / 137 40% 2 20.03.2028 -
Vitaly Janelt Derby County Ativo 154 / 144 40% 1 18.03.2028 -
Christian Kouamé Atlético Mineiro Ativo 142 / 140 40% 2 17.03.2028 -
Hákon Arnar Haraldsson LOSC Lille Ativo 157 / 151 40% 1 17.03.2028 -
Malick Fofana Sunderland Ativo 149 / 145 40% 1 17.03.2028 -
Jackson Muleka Konyaspor Ativo 141 / 128 40% 2 14.03.2028 -
Jaden Philogene Wolverhampton Ativo 142 / 147 40% 1 11.03.2028 -
Fábio Carvalho Brentford Ativo 150 / 151 40% 1 10.03.2028 -
Yeremy Pino Crystal Palace Ativo 153 / 158 40% 1 08.03.2028 -
Mikel Oyarzábal Real Sociedad Ativo 166 / 165 40% 1 08.03.2028 -
Mikkel Damsgaard Brentford Ativo 145 / 160 40% 1 07.03.2028 -
Aral Şimşir Porto Ativo 131 / 137 40% 2 04.03.2028 -
Tyrhys Dolan Espanyol Ativo 137 / 147 40% 1 04.03.2028 -
Cheikh Sabaly Vancouver Whitecaps Ativo 123 / 141 40% 1 01.03.2028 -
Amine Harit Olympique de Marseille Ativo 134 / 126 40% 2 29.02.2028 -
Nuno Moreira Vasco da Gama Ativo 119 / 138 40% 3 26.02.2028 -
Victor Lind Hammarby Ativo 144 / 127 40% 2 24.02.2028 -
Maurício Palmeiras Ativo 148 / 120 40% 3 23.02.2028 -
Jhon Arias Palmeiras Ativo 159 / 129 40% 2 23.02.2028 -
Pedro de la Vega Columbus Crew Ativo 134 / 150 40% 1 21.02.2028 -
Iván Angulo Orlando City Ativo 139 / 126 40% 1 21.02.2028 -
Martín Ojeda Orlando City Ativo 127 / 129 40% 1 12.02.2028 -
Désiré Doué Stade Brestois Ativo 167 / 170 40% 2 08.02.2028 -
Gabriel Pec Cruzeiro Ativo 149 / 126 40% 1 08.02.2028 -
Allan Saint-Maximin Charlotte Football Club Ativo 152 / 129 40% 1 07.02.2028 -
Josh Nichols Oldham Athletic Ativo 120 / 124 40% 3 24.01.2028 -
Ali Yavuz Kol Kasimpasa Ativo 125 / 117 58% 1 17.01.2028 -
Mao Hosoya Santos Ativo 134 / 135 67% 1 01.01.2028 Aprovar
Alex Luna Instituto Ativo 125 / 128 40% 1 31.12.2027 -
Fodé Sylla Sion Ativo 129 / 135 40% 1 28.11.2027 -
Nicolas Sport Recife Ativo 105 / 105 40% 1 28.11.2027 -
Hosea Michael Remo Stars Ativo 82 / 87 40% 2 24.11.2027 -
Felipe Faúndez O'Higgins Ativo 116 / 101 40% 2 24.11.2027 -
Esquerdinha Notts County Ativo 122 / 128 40% 4 23.11.2027 -
Diego Vargas Universidad de Concepcion Ativo 84 / 112 40% 3 22.11.2027 -
Josh Acheampong Everton Ativo 143 / 149 40% 3 22.11.2027 -
Jonny Shore New York City Ativo 115 / 91 40% 2 20.11.2027 -
Caleb Yirenkyi Coventry City Ativo 142 / 156 40% 1 17.11.2027 -
Adrian Skogmar Malmo FF Ativo 99 / 128 40% 1 10.11.2027 -
Jon Esenga IF Elfsborg Ativo 87 / 112 40% 1 08.11.2027 -
Nahuel Leivas Montevideo City Torque Ativo 111 / 102 40% 2 02.11.2027 -
Olaniyi Saheed Kwara United Ativo 89 / 106 40% 2 01.11.2027 -
Daniel Idoko Ikorodu City Ativo 92 / 102 40% 3 29.10.2027 -
Oscar Steinke Brånby Hammarby Ativo 93 / 114 40% 1 19.10.2027 -
Tobias Moi Lillestrom Ativo 92 / 109 40% 1 17.10.2027 -
Colin Guske Orlando City Ativo 104 / 91 40% 2 16.10.2027 -
Yury Oyarzo Racing Ativo 75 / 104 40% 1 09.10.2027 -
Victor Hernandez Santa Fe Ativo 107 / 123 40% 1 06.10.2027 -
Alejandro Leiva Patronato Ativo 98 / 95 40% 1 26.08.2027 -
Federico Matarán Giana Erminio Ativo 105 / 103 40% 1 16.08.2027 -
Matthew Targett Hull City Ativo 126 / 129 40% 1 06.07.2027 -
Alphadjo Cissé Lecce Ativo 129 / 133 40% 1 03.06.2027 -
Riley Owen Stevenage Ativo 100 / 115 40% 1 03.06.2027 -
Oliver Dovin Coventry City Ativo 136 / 140 40% 7 01.06.2027 -
Sławomir Abramowicz Jagiellonia Ativo 129 / 145 40% 4 01.06.2027 -
Ángel González Libertad Ativo 120 / 123 40% 2 26.05.2027 -
James Trafford Leeds United Ativo 153 / 153 40% 3 23.05.2027 -
Josh Keeley Luton Town Ativo 120 / 125 40% 4 23.05.2027 -
Filip Marschall Stevenage Ativo 110 / 107 40% 1 17.05.2027 -
Francesco D'Alterio Ternana Ativo 100 / 116 40% 2 14.05.2027 -
William Rovida Pro Patria Ativo 110 / 98 40% 1 14.05.2027 -
Marvin Keller Chelsea Ativo 148 / 144 40% 3 10.05.2027 -
Franko Kolić Istra 1961 Ativo 99 / 96 40% 4 06.05.2027 -
Cesare Galeotti Trapani Ativo 107 / 106 40% 1 05.05.2027 -
Emre Bilgin Giresunspor Ativo 113 / 111 40% 2 01.05.2027 -
Vladimir Nazarov Pakhtakor Ativo 96 / 98 40% 1 30.04.2027 -
Zion Suzuki Aston Villa Ativo 141 / 146 40% 2 26.04.2027 -
Radek Vítek Middlesbrough Ativo 138 / 133 40% 4 23.04.2027 -
Szymon Weirauch Lechia Ativo 113 / 124 40% 1 19.04.2027 -
Luka Baš Koper Ativo 119 / 116 40% 3 18.04.2027 -
Sergio Barlocco Trento Ativo 113 / 105 40% 3 17.04.2027 -
Leandro Brey Boca Juniors Ativo 116 / 140 40% 2 12.04.2027 -
Bruno Antúnez Boston River Ativo 129 / 106 40% 1 11.04.2027 -
Melker Ellborg Sunderland Ativo 121 / 119 40% 4 08.04.2027 -
Matteo Rizzo Cosenza Ativo 115 / 103 40% 1 31.03.2027 -
Mate Modric Zadar Ativo 94 / 97 40% 2 29.03.2027 -
Shahriar Rezaeian Siah Jamegan Ativo 94 / 119 40% 1 25.03.2027 -
Federico Losas Chacarita Juniors Ativo 102 / 135 40% 1 15.03.2027 -
Heorhii Yermakov Metalist Ativo 130 / 114 40% 1 08.03.2027 -
Deniz Ertaş Konyaspor Ativo 132 / 113 40% 1 06.03.2027 -
Strahinja Manojlović Radnicki Nis Ativo 99 / 125 40% 1 03.03.2027 -
Mohammad Hosseini Malavan Ativo 127 / 120 40% 1 29.01.2027 -
Mevran Ablak Angusht Ativo 67 / 74 40% 1 27.01.2027 -
Sampson Dweh Mallorca Ativo 133 / 134 66% 1 01.01.2027 Aprovar
Enis Bardhi Konyaspor Ativo 132 / 112 58% 1 01.01.2027 -
Mads Hermansen West Ham United Ativo 137 / 149 40% 1 01.01.2027 -
Nathan Collins Brentford Ativo 137 / 158 40% 1 29.12.2026 -
Quinten Timber Crystal Palace Ativo 147 / 159 40% 2 27.12.2026 -
Dennis Cirkin Queens Park Rangers Ativo 135 / 132 40% 1 27.12.2026 -
Dara O'Shea Ipswich Town Ativo 138 / 124 40% 2 25.12.2026 -
Jacob Greaves Ipswich Town Ativo 143 / 128 40% 1 23.12.2026 -
Tomáš Souček West Ham United Ativo 136 / 131 40% 1 22.12.2026 -
Reinildo Sunderland Ativo 138 / 141 40% 3 21.12.2026 -
James Garner Everton Ativo 156 / 137 40% 1 21.12.2026 -
Lucas Torreira Galatasaray Ativo 156 / 146 40% 2 20.12.2026 -
Igor Burnley Ativo 134 / 135 40% 1 20.12.2026 -
Alex Scott Bournemouth Ativo 146 / 156 40% 1 18.12.2026 -
Gabriel Sara Galatasaray Ativo 144 / 152 40% 3 17.12.2026 -
Wilfried Singo Galatasaray Ativo 146 / 144 40% 2 17.12.2026 -
Milan Škriniar Fenerbahce Ativo 152 / 163 40% 3 16.12.2026 -
Aaron Hickey Brentford Ativo 135 / 137 40% 1 14.12.2026 -
Brooke Norton-Cuffy Hull City Ativo 137 / 139 40% 1 14.12.2026 -
Emmanuel Agbadou Besiktas Ativo 142 / 146 40% 1 12.12.2026 -
Harry Clarke Preston Ativo 121 / 136 40% 1 10.12.2026 -
Welington Southampton Ativo 138 / 124 40% 1 09.12.2026 -
Yehor Yarmoliuk Brentford Ativo 150 / 140 40% 1 03.12.2026 -
Max Johnston Derby County Ativo 132 / 133 40% 2 02.12.2026 -
Florentino Luís Ipswich Town Ativo 150 / 147 40% 2 30.11.2026 -
Toby Collyer West Bromwich Albion Ativo 134 / 142 40% 1 30.11.2026 -
Jordan Lotomba Bloemfontein Celtic Ativo 140 / 137 40% 1 29.11.2026 -
Pedro Porro Tottenham Ativo 154 / 141 40% 2 20.11.2026 -
Shea Charles Southampton Ativo 131 / 124 40% 1 20.11.2026 -
Leon Goretzka Aston Villa Ativo 160 / 144 40% 1 14.11.2026 -
Ousmane Diomande Nottingham Forest Ativo 159 / 147 40% 1 10.11.2026 -
Paik Seung-Ho Birmingham Ativo 122 / 128 40% 1 09.11.2026 -
Tariq Lamptey Queens Park Rangers Ativo 134 / 138 40% 1 09.11.2026 -
Hidemasa Morita Hull City Ativo 141 / 153 40% 1 08.11.2026 -
Jarrad Branthwaite Everton Ativo 161 / 158 40% 1 07.11.2026 -
Joe Gomez Liverpool Ativo 155 / 138 40% 1 07.11.2026 -
Maestro Alanyaspor Ativo 125 / 132 40% 1 02.11.2026 -
Nicolás Romero Minnesota United FC Ativo 115 / 142 40% 1 24.10.2026 -
Agustín Bouzat Houston Dynamo Ativo 128 / 112 40% 2 23.10.2026 -
Davinson Sánchez Galatasaray Ativo 159 / 140 40% 2 23.10.2026 -
Nathan Aké Fenerbahce Ativo 153 / 142 40% 4 22.10.2026 -
Facundo Miño Deportivo Riestra Ativo 105 / 104 40% 1 21.10.2026 -
Gustavo Mantuan Zenit Ativo 116 / 140 40% 1 21.10.2026 -
Morgan Billiat SuperSport United Ativo 109 / 126 40% 1 16.10.2026 -
Marcel Hartel St. Louis CITY SC Ativo 115 / 138 40% 1 14.10.2026 -
Ferland Mendy Real Madrid Ativo 155 / 151 40% 1 13.10.2026 -
Óscar Valentín FC Copenhagen Ativo 130 / 126 40% 1 09.10.2026 -
Japhet Sery Larsen Philadelphia Union Ativo 140 / 141 40% 1 08.10.2026 -
Marcelo Saracchi Houston Dynamo Ativo 123 / 123 40% 1 09.09.2026 -
Bünyamin Balcı Antalyaspor Ativo 123 / 109 55% 1 31.08.2026 -